createdAt,value
2023-05-13T00:00:26.834Z,95.50
2023-05-13T00:02:53.656Z,96.00
2023-05-13T00:05:20.460Z,96.10
2023-05-13T00:07:47.265Z,96.00
2023-05-13T00:10:14.210Z,96.00
2023-05-13T00:12:41.025Z,96.30
2023-05-13T00:15:08.242Z,96.60
2023-05-13T00:17:35.162Z,96.60
2023-05-13T00:20:01.978Z,96.50
2023-05-13T00:22:28.746Z,96.50
2023-05-13T00:24:55.654Z,97.00
2023-05-13T00:27:22.440Z,97.30
2023-05-13T00:29:49.198Z,97.30
2023-05-13T00:32:16.099Z,97.40
2023-05-13T00:34:42.839Z,97.40
2023-05-13T00:37:11.031Z,97.50
2023-05-13T00:42:05.965Z,97.50
2023-05-13T00:44:32.855Z,98.00
2023-05-13T00:46:59.663Z,97.70
2023-05-13T00:49:26.564Z,97.70
2023-05-13T00:51:55.221Z,97.70
2023-05-13T00:54:22.044Z,97.50
2023-05-13T00:56:48.798Z,97.00
2023-05-13T00:59:16.036Z,97.30
2023-05-13T01:02:08.043Z,97.50
2023-05-13T01:04:46.249Z,97.80
2023-05-13T01:07:50.846Z,97.90
2023-05-13T01:10:44.774Z,97.70
2023-05-13T01:13:13.938Z,97.90
2023-05-13T01:15:48.794Z,97.80
2023-05-13T01:18:25.112Z,98.10
2023-05-13T01:20:51.908Z,98.70
2023-05-13T01:23:18.593Z,98.60
2023-05-13T01:25:45.360Z,99.20
2023-05-13T01:28:12.272Z,99.60
2023-05-13T01:30:39.612Z,99.60
2023-05-13T01:33:06.752Z,99.70
2023-05-13T01:35:34.163Z,99.90
2023-05-13T01:38:02.784Z,99.90
2023-05-13T01:40:32.713Z,99.90
2023-05-13T01:43:00.703Z,99.90
2023-05-13T01:45:30.932Z,99.90
2023-05-13T01:47:57.736Z,99.90
2023-05-13T01:50:24.930Z,99.90
2023-05-13T01:52:51.920Z,99.90
2023-05-13T01:55:19.107Z,99.90
2023-05-13T01:57:46.138Z,99.90
2023-05-13T02:00:13.428Z,99.90
2023-05-13T02:02:40.217Z,99.90
2023-05-13T02:05:07.362Z,99.90
2023-05-13T02:07:34.535Z,99.90
2023-05-13T02:10:01.284Z,99.90
2023-05-13T02:12:28.328Z,99.90
2023-05-13T02:14:55.757Z,99.90
2023-05-13T02:17:22.670Z,99.90
2023-05-13T02:19:50.231Z,99.90
2023-05-13T02:22:16.970Z,99.90
2023-05-13T02:24:43.722Z,99.90
2023-05-13T02:27:12.717Z,99.90
2023-05-13T02:29:39.411Z,99.90
2023-05-13T02:32:06.511Z,99.90
2023-05-13T02:34:33.385Z,99.90
2023-05-13T02:37:00.118Z,99.90
2023-05-13T02:39:26.997Z,99.90
2023-05-13T02:41:53.691Z,99.90
2023-05-13T02:44:20.451Z,99.90
2023-05-13T02:46:47.170Z,99.90
2023-05-13T02:49:14.097Z,99.90
2023-05-13T02:51:41.003Z,99.90
2023-05-13T02:54:07.728Z,99.90
2023-05-13T02:56:34.493Z,99.90
2023-05-13T02:59:01.196Z,99.90
2023-05-13T03:01:28.019Z,99.90
2023-05-13T03:03:54.801Z,99.90
2023-05-13T03:06:21.533Z,99.90
2023-05-13T03:08:48.205Z,99.90
2023-05-13T03:11:15.033Z,99.90
2023-05-13T03:13:41.860Z,99.90
2023-05-13T03:16:09.520Z,99.90
2023-05-13T03:18:36.330Z,99.90
2023-05-13T03:21:03.147Z,99.90
2023-05-13T03:23:30.086Z,99.90
2023-05-13T03:25:58.010Z,99.90
2023-05-13T03:28:24.796Z,99.90
2023-05-13T03:30:51.743Z,99.90
2023-05-13T03:33:18.627Z,99.90
2023-05-13T03:35:45.762Z,99.90
2023-05-13T03:38:12.498Z,99.90
2023-05-13T03:40:39.365Z,99.90
2023-05-13T03:43:06.149Z,99.90
2023-05-13T03:45:32.907Z,99.90
2023-05-13T03:47:59.685Z,99.90
2023-05-13T03:50:26.570Z,99.90
2023-05-13T03:52:53.316Z,99.90
2023-05-13T03:55:20.209Z,99.90
2023-05-13T03:57:49.323Z,99.90
2023-05-13T04:00:16.632Z,99.90
2023-05-13T04:02:43.550Z,99.90
2023-05-13T04:05:10.991Z,99.90
2023-05-13T04:07:37.846Z,99.90
2023-05-13T04:10:05.053Z,99.90
2023-05-13T04:12:33.351Z,99.90
2023-05-13T04:15:00.257Z,99.90
2023-05-13T04:17:27.696Z,99.90
2023-05-13T04:19:55.011Z,99.90
2023-05-13T04:22:22.197Z,99.90
2023-05-13T04:24:52.004Z,99.90
2023-05-13T04:27:18.926Z,99.90
2023-05-13T04:29:45.629Z,99.90
2023-05-13T04:32:16.121Z,99.90
2023-05-13T04:34:42.977Z,99.90
2023-05-13T04:37:09.695Z,99.90
2023-05-13T04:39:36.416Z,99.90
2023-05-13T04:42:03.422Z,99.90
2023-05-13T04:44:30.140Z,99.90
2023-05-13T04:46:56.905Z,99.90
2023-05-13T04:49:23.674Z,99.90
2023-05-13T04:51:50.825Z,99.90
2023-05-13T04:54:17.879Z,99.90
2023-05-13T04:56:44.649Z,99.90
2023-05-13T04:59:11.493Z,99.90
2023-05-13T05:01:38.263Z,99.90
2023-05-13T05:04:05.962Z,99.90
2023-05-13T05:06:33.430Z,99.90
2023-05-13T05:09:00.389Z,99.90
2023-05-13T05:11:27.127Z,99.90
2023-05-13T05:13:53.842Z,99.90
2023-05-13T05:16:20.925Z,99.90
2023-05-13T05:18:47.791Z,99.90
2023-05-13T05:21:14.525Z,99.90
2023-05-13T05:23:41.327Z,99.90
2023-05-13T05:26:12.073Z,99.90
2023-05-13T05:28:40.197Z,99.90
2023-05-13T05:31:07.325Z,99.90
2023-05-13T05:33:34.175Z,99.10
2023-05-13T05:36:00.884Z,98.40
2023-05-13T05:38:27.889Z,98.10
2023-05-13T05:40:54.668Z,97.60
2023-05-13T05:43:21.507Z,97.20
2023-05-13T05:45:48.249Z,96.00
2023-05-13T05:48:15.031Z,95.60
2023-05-13T05:50:41.967Z,95.10
2023-05-13T05:53:08.724Z,93.80
2023-05-13T05:55:35.539Z,93.70
2023-05-13T05:58:06.411Z,92.00
2023-05-13T06:00:33.410Z,92.10
2023-05-13T06:03:00.484Z,92.80
2023-05-13T06:05:27.354Z,92.60
2023-05-13T06:10:21.577Z,90.50
2023-05-13T06:12:48.558Z,90.50
2023-05-13T06:15:15.289Z,90.30
2023-05-13T06:17:42.151Z,90.70
2023-05-13T06:20:09.334Z,90.70
2023-05-13T06:22:36.067Z,89.70
2023-05-13T06:25:02.878Z,89.70
2023-05-13T06:27:29.711Z,89.40
2023-05-13T06:29:56.448Z,87.50
2023-05-13T06:32:23.231Z,87.10
2023-05-13T06:34:54.576Z,87.90
2023-05-13T06:37:22.607Z,87.90
2023-05-13T06:39:49.495Z,86.80
2023-05-13T06:42:16.204Z,86.90
2023-05-13T06:44:42.948Z,87.10
2023-05-13T06:47:14.769Z,87.10
2023-05-13T06:49:42.257Z,86.70
2023-05-13T06:52:09.892Z,85.60
2023-05-13T06:54:36.974Z,86.00
2023-05-13T06:57:07.452Z,86.00
2023-05-13T06:59:35.291Z,85.60
2023-05-13T07:02:01.987Z,84.00
2023-05-13T07:04:30.208Z,83.70
2023-05-13T07:06:57.442Z,83.80
2023-05-13T07:09:24.257Z,83.80
2023-05-13T07:11:51.075Z,83.80
2023-05-13T07:14:17.893Z,83.50
2023-05-13T07:16:44.741Z,84.10
2023-05-13T07:19:11.534Z,84.00
2023-05-13T07:21:38.992Z,83.40
2023-05-13T07:24:05.888Z,83.60
2023-05-13T07:26:32.666Z,82.80
2023-05-13T07:28:59.645Z,81.70
2023-05-13T07:31:26.657Z,80.90
2023-05-13T07:33:53.683Z,80.80
2023-05-13T07:36:20.489Z,81.00
2023-05-13T07:38:47.242Z,81.30
2023-05-13T07:41:14.029Z,80.20
2023-05-13T07:46:08.371Z,80.30
2023-05-13T07:48:35.079Z,80.00
2023-05-13T07:51:01.856Z,78.20
2023-05-13T07:53:28.677Z,78.50
2023-05-13T07:55:55.511Z,78.10
2023-05-13T07:58:22.382Z,79.40
2023-05-13T08:00:52.033Z,78.70
2023-05-13T08:03:19.073Z,78.20
2023-05-13T08:05:47.953Z,78.20
2023-05-13T08:08:14.802Z,79.50
2023-05-13T08:10:41.542Z,78.90
2023-05-13T08:13:08.310Z,77.00
2023-05-13T08:15:35.140Z,77.10
2023-05-13T08:18:01.906Z,78.90
2023-05-13T08:20:30.121Z,78.20
2023-05-13T08:22:58.300Z,78.50
2023-05-13T08:25:25.332Z,78.00
2023-05-13T08:27:52.135Z,77.50
2023-05-13T08:30:18.919Z,77.60
2023-05-13T08:32:45.959Z,78.00
2023-05-13T08:35:12.736Z,77.10
2023-05-13T08:37:39.827Z,77.10
2023-05-13T08:40:08.282Z,77.40
2023-05-13T08:42:39.776Z,76.30
2023-05-13T08:45:08.585Z,76.30
2023-05-13T08:47:51.268Z,76.00
2023-05-13T08:50:19.599Z,76.30
2023-05-13T08:52:46.507Z,76.00
2023-05-13T08:55:13.919Z,74.90
2023-05-13T08:57:41.409Z,75.20
2023-05-13T09:00:08.611Z,74.80
2023-05-13T09:02:35.444Z,75.10
2023-05-13T09:05:06.971Z,75.20
2023-05-13T09:07:38.033Z,74.60
2023-05-13T09:10:06.643Z,74.50
2023-05-13T09:12:46.741Z,74.70
2023-05-13T09:15:20.578Z,74.60
2023-05-13T09:17:53.211Z,74.60
2023-05-13T09:20:21.440Z,74.10
2023-05-13T09:23:00.596Z,74.90
2023-05-13T09:25:28.492Z,74.00
2023-05-13T09:28:00.446Z,74.30
2023-05-13T09:30:54.579Z,74.50
2023-05-13T09:33:21.348Z,74.50
2023-05-13T09:35:54.204Z,74.90
2023-05-13T09:38:32.177Z,74.70
2023-05-13T09:41:00.958Z,74.60
2023-05-13T09:43:32.758Z,74.50
2023-05-13T09:46:04.739Z,75.10
2023-05-13T09:48:35.356Z,75.40
2023-05-13T09:51:02.182Z,75.20
2023-05-13T09:53:29.055Z,74.70
2023-05-13T09:55:57.505Z,74.40
2023-05-13T09:58:27.950Z,74.80
2023-05-13T10:00:55.267Z,74.00
2023-05-13T10:03:22.513Z,74.00
2023-05-13T10:05:52.658Z,75.00
2023-05-13T10:08:19.676Z,75.10
2023-05-13T10:10:48.052Z,73.10
2023-05-13T10:13:17.292Z,72.00
2023-05-13T10:15:47.070Z,72.80
2023-05-13T10:18:15.154Z,73.70
2023-05-13T10:20:42.434Z,72.60
2023-05-13T10:23:10.341Z,72.40
2023-05-13T10:25:38.139Z,73.00
2023-05-13T10:28:05.498Z,72.10
2023-05-13T10:30:33.637Z,71.70
2023-05-13T10:33:01.423Z,71.80
2023-05-13T10:35:33.915Z,72.90
2023-05-13T10:38:35.910Z,70.30
2023-05-13T10:41:50.242Z,71.20
2023-05-13T10:44:19.497Z,71.20
2023-05-13T10:46:48.416Z,71.30
2023-05-13T10:49:18.531Z,72.60
2023-05-13T10:51:49.954Z,70.00
2023-05-13T10:54:21.110Z,70.80
2023-05-13T10:56:59.382Z,67.50
2023-05-13T10:59:30.408Z,68.50
2023-05-13T11:01:57.422Z,70.70
2023-05-13T11:04:24.246Z,68.50
2023-05-13T11:06:53.057Z,69.90
2023-05-13T11:09:22.948Z,69.90
2023-05-13T11:12:00.446Z,69.50
2023-05-13T11:14:27.997Z,69.20
2023-05-13T11:17:00.697Z,69.60
2023-05-13T11:19:29.553Z,70.40
2023-05-13T11:21:58.389Z,69.10
2023-05-13T11:24:26.222Z,68.80
2023-05-13T11:26:58.887Z,68.60
2023-05-13T11:29:31.177Z,69.20
2023-05-13T11:32:00.610Z,68.20
2023-05-13T11:34:28.338Z,68.00
2023-05-13T11:37:04.050Z,68.90
2023-05-13T11:39:32.028Z,68.60
2023-05-13T11:42:01.578Z,68.30
2023-05-13T11:44:28.538Z,68.50
2023-05-13T11:47:00.415Z,67.90
2023-05-13T11:49:39.376Z,68.00
2023-05-13T11:52:06.127Z,69.90
2023-05-13T11:54:39.957Z,66.30
2023-05-13T11:57:14.956Z,67.70
2023-05-13T11:59:48.018Z,69.00
2023-05-13T12:02:15.156Z,67.80
2023-05-13T12:04:44.367Z,68.10
2023-05-13T12:07:14.207Z,67.70
2023-05-13T12:09:40.911Z,67.40
2023-05-13T12:12:08.044Z,66.50
2023-05-13T12:14:35.105Z,66.60
2023-05-13T12:17:02.526Z,67.30
2023-05-13T12:19:29.293Z,68.00
2023-05-13T12:21:56.059Z,65.20
2023-05-13T12:24:23.607Z,65.20
2023-05-13T12:26:50.476Z,66.20
2023-05-13T12:29:17.245Z,66.10
2023-05-13T12:32:03.599Z,66.70
2023-05-13T12:34:32.239Z,66.70
2023-05-13T12:37:12.886Z,66.10
2023-05-13T12:39:43.432Z,64.80
2023-05-13T12:42:17.758Z,64.80
2023-05-13T12:44:45.678Z,62.70
2023-05-13T12:47:15.450Z,62.30
2023-05-13T12:49:55.158Z,64.10
2023-05-13T12:52:22.200Z,64.70
2023-05-13T12:54:49.054Z,65.10
2023-05-13T12:57:17.406Z,64.40
2023-05-13T12:59:47.844Z,65.00
2023-05-13T13:02:14.683Z,64.90
2023-05-13T13:04:41.428Z,64.90
2023-05-13T13:07:12.722Z,66.70
2023-05-13T13:09:39.580Z,66.90
2023-05-13T13:12:06.711Z,66.20
2023-05-13T13:14:33.759Z,65.50
2023-05-13T13:17:00.511Z,66.60
2023-05-13T13:19:27.233Z,65.60
2023-05-13T13:21:54.051Z,66.00
2023-05-13T13:24:20.822Z,66.70
2023-05-13T13:26:47.596Z,64.80
2023-05-13T13:29:14.671Z,66.30
2023-05-13T13:31:41.492Z,65.20
2023-05-13T13:34:10.381Z,66.00
2023-05-13T13:36:37.104Z,65.80
2023-05-13T13:39:03.942Z,64.80
2023-05-13T13:41:30.780Z,65.60
2023-05-13T13:43:57.590Z,66.50
2023-05-13T13:46:24.487Z,66.20
2023-05-13T13:48:51.278Z,66.40
2023-05-13T13:51:17.999Z,66.60
2023-05-13T13:53:44.747Z,66.20
2023-05-13T13:56:11.492Z,66.00
2023-05-13T13:58:38.296Z,66.20
2023-05-13T14:01:05.124Z,66.30
2023-05-13T14:03:32.049Z,65.60
2023-05-13T14:05:59.088Z,65.10
2023-05-13T14:08:25.845Z,65.50
2023-05-13T14:10:52.665Z,64.40
2023-05-13T14:13:19.474Z,64.20
2023-05-13T14:15:46.240Z,65.70
2023-05-13T14:18:13.037Z,65.40
2023-05-13T14:20:39.824Z,65.30
2023-05-13T14:23:06.622Z,63.80
2023-05-13T14:25:33.411Z,63.90
2023-05-13T14:28:00.232Z,63.60
2023-05-13T14:30:27.747Z,63.70
2023-05-13T14:32:54.720Z,64.90
2023-05-13T14:35:21.481Z,63.70
2023-05-13T14:37:48.278Z,62.10
2023-05-13T14:40:15.018Z,61.50
2023-05-13T14:42:41.841Z,61.10
2023-05-13T14:45:10.610Z,62.10
2023-05-13T14:47:39.298Z,61.50
2023-05-13T14:50:06.733Z,61.50
2023-05-13T14:52:33.493Z,62.60
2023-05-13T14:55:00.249Z,62.70
2023-05-13T14:57:27.706Z,62.20
2023-05-13T14:59:54.505Z,63.50
2023-05-13T15:02:21.417Z,64.20
2023-05-13T15:04:48.203Z,62.70
2023-05-13T15:07:15.325Z,63.50
2023-05-13T15:09:42.120Z,62.30
2023-05-13T15:12:09.357Z,62.40
2023-05-13T15:14:36.081Z,62.30
2023-05-13T15:17:02.935Z,62.50
2023-05-13T15:19:30.650Z,62.20
2023-05-13T15:21:57.487Z,62.40
2023-05-13T15:24:24.227Z,61.20
2023-05-13T15:26:50.966Z,61.70
2023-05-13T15:29:17.930Z,61.90
2023-05-13T15:31:44.726Z,62.10
2023-05-13T15:34:11.468Z,63.00
2023-05-13T15:36:38.159Z,62.60
2023-05-13T15:39:04.976Z,63.60
2023-05-13T15:41:31.744Z,64.30
2023-05-13T15:43:58.506Z,63.80
2023-05-13T15:46:25.749Z,64.10
2023-05-13T15:48:52.584Z,65.00
2023-05-13T15:51:19.607Z,65.20
2023-05-13T15:53:46.573Z,65.40
2023-05-13T15:56:13.317Z,62.30
2023-05-13T15:58:40.054Z,62.10
2023-05-13T16:01:06.981Z,61.00
2023-05-13T16:03:33.712Z,61.20
2023-05-13T16:06:00.588Z,61.50
2023-05-13T16:08:27.383Z,61.20
2023-05-13T16:10:54.105Z,61.50
2023-05-13T16:13:21.571Z,62.10
2023-05-13T16:15:48.360Z,62.60
2023-05-13T16:18:15.127Z,62.20
2023-05-13T16:20:41.921Z,62.70
2023-05-13T16:23:08.697Z,62.30
2023-05-13T16:25:35.494Z,62.70
2023-05-13T16:28:02.946Z,62.80
2023-05-13T16:30:29.796Z,62.40
2023-05-13T16:32:56.827Z,62.20
2023-05-13T16:35:23.751Z,62.10
2023-05-13T16:37:50.952Z,61.90
2023-05-13T16:40:17.764Z,61.90
2023-05-13T16:42:44.538Z,62.30
2023-05-13T16:45:11.522Z,62.30
2023-05-13T16:47:38.698Z,62.60
2023-05-13T16:50:06.584Z,62.40
2023-05-13T16:52:34.164Z,62.40
2023-05-13T16:55:00.938Z,62.40
2023-05-13T16:57:27.794Z,61.80
2023-05-13T16:59:54.532Z,62.50
2023-05-13T17:02:21.270Z,62.90
2023-05-13T17:04:48.011Z,63.30
2023-05-13T17:07:15.059Z,64.30
2023-05-13T17:09:41.809Z,65.10
2023-05-13T17:12:08.773Z,64.20
2023-05-13T17:14:35.755Z,61.80
2023-05-13T17:17:03.224Z,61.00
2023-05-13T17:19:30.386Z,60.10
2023-05-13T17:21:57.150Z,60.20
2023-05-13T17:24:23.904Z,59.60
2023-05-13T17:26:50.686Z,59.80
2023-05-13T17:29:17.426Z,60.20
2023-05-13T17:31:44.311Z,59.50
2023-05-13T17:34:11.246Z,59.10
2023-05-13T17:36:38.050Z,58.80
2023-05-13T17:39:04.848Z,58.80
2023-05-13T17:41:31.653Z,58.40
2023-05-13T17:43:58.451Z,58.70
2023-05-13T17:46:25.439Z,59.30
2023-05-13T17:48:52.299Z,58.70
2023-05-13T17:51:19.139Z,58.50
2023-05-13T17:53:45.879Z,58.00
2023-05-13T17:56:19.494Z,58.10
2023-05-13T17:58:46.242Z,58.10
2023-05-13T18:01:12.987Z,57.90
2023-05-13T18:03:39.747Z,58.00
2023-05-13T18:06:06.689Z,58.60
2023-05-13T18:08:33.581Z,58.70
2023-05-13T18:11:00.388Z,58.30
2023-05-13T18:13:27.113Z,58.70
2023-05-13T18:15:53.945Z,59.60
2023-05-13T18:18:20.771Z,59.20
2023-05-13T18:20:47.608Z,59.60
2023-05-13T18:23:14.433Z,60.10
2023-05-13T18:25:52.417Z,60.20
2023-05-13T18:28:22.154Z,60.20
2023-05-13T18:30:48.898Z,60.60
2023-05-13T18:33:15.683Z,61.00
2023-05-13T18:35:42.479Z,60.70
2023-05-13T18:38:09.311Z,61.70
2023-05-13T18:40:36.067Z,62.10
2023-05-13T18:43:02.821Z,63.50
2023-05-13T18:45:29.677Z,63.70
2023-05-13T18:47:56.506Z,64.60
2023-05-13T18:50:24.883Z,64.70
2023-05-13T18:52:51.698Z,64.80
2023-05-13T18:55:18.556Z,65.50
2023-05-13T18:57:45.581Z,66.00
2023-05-13T19:00:13.280Z,67.20
2023-05-13T19:02:40.120Z,68.40
2023-05-13T19:05:07.700Z,69.60
2023-05-13T19:07:34.413Z,69.50
2023-05-13T19:10:01.244Z,70.60
2023-05-13T19:12:28.167Z,71.90
2023-05-13T19:14:54.955Z,73.40
2023-05-13T19:17:21.910Z,74.00
2023-05-13T19:19:48.717Z,75.00
2023-05-13T19:22:15.407Z,75.80
2023-05-13T19:24:42.223Z,76.80
2023-05-13T19:27:09.226Z,77.80
2023-05-13T19:29:36.142Z,77.70
2023-05-13T19:32:02.909Z,78.30
2023-05-13T19:34:29.598Z,78.30
2023-05-13T19:36:56.468Z,78.40
2023-05-13T19:39:23.164Z,78.30
2023-05-13T19:41:49.989Z,78.30
2023-05-13T19:44:16.742Z,78.30
2023-05-13T19:46:43.598Z,78.00
2023-05-13T19:49:10.365Z,79.10
2023-05-13T19:51:37.122Z,79.30
2023-05-13T19:54:04.012Z,79.40
2023-05-13T19:56:30.873Z,79.90
2023-05-13T19:58:57.624Z,80.60
2023-05-13T20:01:24.804Z,81.70
2023-05-13T20:03:51.700Z,81.70
2023-05-13T20:06:18.524Z,83.80
2023-05-13T20:08:45.895Z,84.00
2023-05-13T20:11:12.872Z,83.90
2023-05-13T20:13:39.672Z,84.50
2023-05-13T20:16:06.418Z,84.80
2023-05-13T20:18:33.837Z,85.10
2023-05-13T20:21:01.239Z,85.90
2023-05-13T20:23:27.964Z,86.40
2023-05-13T20:25:56.875Z,86.40
2023-05-13T20:28:24.345Z,87.20
2023-05-13T20:30:54.359Z,87.60
2023-05-13T20:33:21.197Z,87.60
2023-05-13T20:38:15.118Z,89.40
2023-05-13T20:40:41.964Z,89.70
2023-05-13T20:43:08.850Z,90.10
2023-05-13T20:45:39.317Z,90.60
2023-05-13T20:48:06.755Z,90.90
2023-05-13T20:50:33.591Z,91.10
2023-05-13T20:53:00.637Z,91.30
2023-05-13T20:55:27.653Z,91.90
2023-05-13T21:00:22.196Z,92.50
2023-05-13T21:02:50.372Z,92.70
2023-05-13T21:05:17.350Z,92.60
2023-05-13T21:07:44.148Z,92.80
2023-05-13T21:10:11.058Z,93.00
2023-05-13T21:12:37.923Z,92.90
2023-05-13T21:15:05.069Z,93.40
2023-05-13T21:17:31.832Z,93.00
2023-05-13T21:19:58.636Z,92.70
2023-05-13T21:22:25.423Z,92.70
2023-05-13T21:24:52.233Z,93.40
2023-05-13T21:27:19.086Z,93.60
2023-05-13T21:29:45.869Z,93.00
2023-05-13T21:32:12.729Z,92.60
2023-05-13T21:34:39.533Z,92.50
2023-05-13T21:37:06.334Z,92.60
2023-05-13T21:39:33.056Z,92.10
2023-05-13T21:42:00.695Z,91.00
2023-05-13T21:44:28.923Z,90.60
2023-05-13T21:46:55.704Z,90.70
2023-05-13T21:49:22.647Z,90.70
2023-05-13T21:51:49.573Z,90.50
2023-05-13T21:54:16.545Z,90.20
2023-05-13T21:56:43.317Z,90.90
2023-05-13T21:59:10.144Z,91.00
2023-05-13T22:01:36.886Z,91.10
2023-05-13T22:04:03.761Z,91.50
2023-05-13T22:06:30.977Z,91.90
2023-05-13T22:08:57.763Z,92.20
2023-05-13T22:11:24.504Z,93.20
2023-05-13T22:13:51.260Z,93.60
2023-05-13T22:16:18.158Z,94.00
2023-05-13T22:18:45.044Z,94.50
2023-05-13T22:21:11.842Z,94.60
2023-05-13T22:23:38.593Z,94.50
2023-05-13T22:26:05.440Z,94.00
2023-05-13T22:28:32.208Z,94.00
2023-05-13T22:30:58.977Z,94.00
2023-05-13T22:33:26.005Z,94.00
2023-05-13T22:35:52.782Z,94.50
2023-05-13T22:38:19.510Z,94.90
2023-05-13T22:40:46.291Z,95.00
2023-05-13T22:43:13.073Z,95.00
2023-05-13T22:45:39.887Z,95.20
2023-05-13T22:48:06.798Z,95.60
2023-05-13T22:50:33.606Z,95.70
2023-05-13T22:53:00.360Z,96.10
2023-05-13T22:55:27.140Z,96.50
2023-05-13T22:57:53.945Z,96.60
2023-05-13T23:00:20.849Z,96.70
2023-05-13T23:02:47.793Z,96.40
2023-05-13T23:05:14.655Z,96.00
2023-05-13T23:07:41.363Z,96.00
2023-05-13T23:10:08.465Z,96.90
2023-05-13T23:12:35.253Z,98.10
2023-05-13T23:15:02.222Z,98.30
2023-05-13T23:17:29.118Z,97.90
2023-05-13T23:19:55.991Z,97.60
2023-05-13T23:24:49.974Z,97.10
2023-05-13T23:27:16.691Z,96.90
2023-05-13T23:29:43.454Z,96.20
2023-05-13T23:32:10.287Z,95.50
2023-05-13T23:34:37.069Z,96.10
2023-05-13T23:37:03.862Z,96.60
2023-05-13T23:39:30.621Z,97.20
2023-05-13T23:41:57.333Z,97.10
2023-05-13T23:44:24.043Z,97.00
2023-05-13T23:46:50.920Z,96.90
2023-05-13T23:49:17.709Z,96.50
2023-05-13T23:51:44.485Z,96.50
2023-05-13T23:54:11.266Z,97.70
2023-05-13T23:56:38.075Z,98.60
2023-05-13T23:59:05.704Z,98.80
